createdAt,value
2018-05-07T00:01:50.416Z,2.97
2018-05-07T00:04:18.698Z,2.77
2018-05-07T00:06:46.944Z,3.17
2018-05-07T00:09:15.209Z,2.60
2018-05-07T00:11:44.246Z,2.87
2018-05-07T00:14:13.361Z,2.97
2018-05-07T00:16:41.597Z,2.93
2018-05-07T00:19:09.854Z,2.90
2018-05-07T00:21:38.855Z,2.87
2018-05-07T00:24:07.877Z,2.43
2018-05-07T00:26:36.193Z,2.90
2018-05-07T00:29:05.319Z,2.87
2018-05-07T00:31:33.580Z,2.97
2018-05-07T00:34:01.896Z,3.00
2018-05-07T00:36:30.922Z,2.47
2018-05-07T00:38:59.205Z,2.80
2018-05-07T00:41:29.883Z,2.80
2018-05-07T00:43:58.128Z,2.70
2018-05-07T00:46:26.376Z,3.33
2018-05-07T00:48:55.413Z,2.80
2018-05-07T00:51:23.651Z,2.97
2018-05-07T00:53:52.855Z,3.20
2018-05-07T00:56:21.875Z,3.00
2018-05-07T00:58:50.121Z,2.80
2018-05-07T01:01:18.364Z,3.00
2018-05-07T01:03:48.763Z,3.00
2018-05-07T01:06:17.745Z,2.73
2018-05-07T01:08:46.829Z,2.77
2018-05-07T01:11:15.071Z,2.70
2018-05-07T01:13:43.345Z,2.83
2018-05-07T01:16:13.055Z,2.77
2018-05-07T01:18:41.297Z,2.63
2018-05-07T01:21:09.542Z,2.70
2018-05-07T01:23:37.825Z,3.20
2018-05-07T01:26:06.156Z,3.50
2018-05-07T01:28:35.178Z,3.60
2018-05-07T01:31:03.875Z,3.10
2018-05-07T01:33:32.137Z,3.30
2018-05-07T01:36:01.158Z,3.60
2018-05-07T01:38:30.149Z,3.50
2018-05-07T01:40:58.387Z,3.40
2018-05-07T01:43:26.649Z,3.53
2018-05-07T01:45:54.892Z,3.70
2018-05-07T01:48:23.174Z,3.97
2018-05-07T01:50:51.435Z,3.70
2018-05-07T01:53:20.458Z,4.20
2018-05-07T01:55:48.688Z,4.33
2018-05-07T01:58:16.925Z,3.70
2018-05-07T02:00:45.653Z,3.77
2018-05-07T02:03:13.916Z,4.50
2018-05-07T02:05:42.306Z,4.00
2018-05-07T02:08:12.025Z,4.10
2018-05-07T02:10:40.290Z,4.57
2018-05-07T02:13:08.557Z,4.57
2018-05-07T02:15:36.801Z,4.40
2018-05-07T02:18:05.803Z,3.80
2018-05-07T02:20:34.832Z,4.67
2018-05-07T02:23:03.123Z,4.47
2018-05-07T02:25:31.368Z,3.97
2018-05-07T02:28:01.304Z,4.30
2018-05-07T02:30:29.563Z,4.07
2018-05-07T02:32:58.567Z,3.93
2018-05-07T02:35:27.574Z,4.13
2018-05-07T02:37:55.804Z,4.10
2018-05-07T02:40:24.093Z,4.47
2018-05-07T02:42:52.388Z,4.90
2018-05-07T02:45:20.632Z,4.40
2018-05-07T02:47:48.897Z,4.60
2018-05-07T02:50:17.922Z,4.53
2018-05-07T02:52:46.160Z,4.20
2018-05-07T02:55:14.390Z,4.17
2018-05-07T02:57:42.643Z,4.10
2018-05-07T03:00:10.925Z,4.40
2018-05-07T03:02:39.202Z,4.20
2018-05-07T03:05:07.435Z,3.73
2018-05-07T03:07:35.676Z,4.73
2018-05-07T03:10:04.019Z,4.20
2018-05-07T03:12:33.023Z,4.17
2018-05-07T03:15:01.325Z,4.10
2018-05-07T03:17:29.571Z,4.30
2018-05-07T03:19:57.814Z,4.37
2018-05-07T03:22:26.047Z,4.70
2018-05-07T03:24:54.299Z,4.20
2018-05-07T03:27:23.302Z,4.20
2018-05-07T03:29:52.319Z,3.83
2018-05-07T03:32:20.587Z,4.13
2018-05-07T03:34:49.605Z,4.10
2018-05-07T03:37:17.836Z,4.67
2018-05-07T03:39:46.071Z,4.00
2018-05-07T03:42:14.307Z,4.27
2018-05-07T03:44:42.582Z,4.07
2018-05-07T03:47:10.811Z,4.30
2018-05-07T03:49:39.082Z,4.03
2018-05-07T03:52:08.098Z,3.70
2018-05-07T03:54:36.904Z,4.10
2018-05-07T03:57:05.154Z,4.07
2018-05-07T03:59:34.160Z,4.10
2018-05-07T04:02:03.168Z,4.07
2018-05-07T04:04:31.399Z,4.07
2018-05-07T04:07:00.525Z,4.10
2018-05-07T04:09:29.550Z,3.77
2018-05-07T04:11:57.789Z,4.23
2018-05-07T04:14:26.051Z,3.90
2018-05-07T04:17:06.139Z,3.93
2018-05-07T04:19:47.088Z,4.23
2018-05-07T04:22:27.291Z,3.70
2018-05-07T04:24:55.516Z,3.40
2018-05-07T04:27:23.861Z,3.63
2018-05-07T04:29:52.822Z,3.63
2018-05-07T04:32:21.831Z,4.07
2018-05-07T04:34:50.082Z,4.00
2018-05-07T04:37:18.356Z,3.87
2018-05-07T04:39:46.589Z,3.77
2018-05-07T04:42:14.837Z,3.90
2018-05-07T04:44:43.829Z,3.27
2018-05-07T04:47:12.816Z,3.67
2018-05-07T04:49:41.654Z,3.40
2018-05-07T04:52:09.904Z,3.93
2018-05-07T04:54:38.909Z,3.93
2018-05-07T04:57:07.926Z,3.50
2018-05-07T04:59:36.175Z,4.23
2018-05-07T05:02:05.051Z,4.47
2018-05-07T05:04:33.295Z,4.03
2018-05-07T05:07:01.552Z,4.40
2018-05-07T05:09:30.556Z,3.93
2018-05-07T05:11:59.633Z,3.70
2018-05-07T05:14:27.915Z,3.83
2018-05-07T05:16:56.143Z,4.00
2018-05-07T05:19:24.368Z,4.13
2018-05-07T05:21:52.615Z,4.17
2018-05-07T05:24:20.871Z,4.13
2018-05-07T05:26:49.419Z,4.13
2018-05-07T05:29:17.646Z,4.70
2018-05-07T05:31:45.909Z,4.60
2018-05-07T05:34:14.167Z,4.90
2018-05-07T05:36:44.053Z,5.37
2018-05-07T05:39:12.324Z,4.67
2018-05-07T05:41:41.332Z,5.13
2018-05-07T05:44:10.373Z,4.90
2018-05-07T05:46:39.419Z,4.83
2018-05-07T05:49:08.767Z,4.83
2018-05-07T05:51:37.025Z,4.67
2018-05-07T05:54:05.271Z,5.00
2018-05-07T05:56:33.535Z,4.30
2018-05-07T05:59:03.068Z,5.30
2018-05-07T06:01:31.391Z,4.60
2018-05-07T06:03:59.637Z,4.73
2018-05-07T06:06:27.864Z,6.00
2018-05-07T06:08:56.289Z,5.20
2018-05-07T06:11:24.460Z,4.60
2018-05-07T06:13:57.639Z,4.50
2018-05-07T06:16:25.847Z,4.60
2018-05-07T06:18:54.675Z,4.30
2018-05-07T06:21:22.988Z,3.90
2018-05-07T06:23:51.216Z,4.07
2018-05-07T06:26:19.445Z,4.27
2018-05-07T06:28:48.500Z,4.43
2018-05-07T06:31:16.727Z,4.60
2018-05-07T06:33:46.692Z,4.60
2018-05-07T06:36:14.938Z,3.97
2018-05-07T06:38:43.944Z,3.93
2018-05-07T06:41:12.203Z,4.40
2018-05-07T06:43:40.459Z,4.40
2018-05-07T06:46:08.683Z,4.20
2018-05-07T06:48:36.932Z,3.73
2018-05-07T06:51:05.180Z,4.80
2018-05-07T06:53:33.432Z,4.30
2018-05-07T06:56:01.667Z,4.23
2018-05-07T06:58:29.941Z,4.10
2018-05-07T07:00:58.204Z,3.73
2018-05-07T07:03:26.572Z,3.93
2018-05-07T07:05:54.820Z,4.30
2018-05-07T07:08:24.014Z,3.43
2018-05-07T07:10:52.103Z,3.47
2018-05-07T07:13:21.141Z,3.80
2018-05-07T07:15:49.444Z,3.90
2018-05-07T07:18:17.701Z,4.00
2018-05-07T07:20:45.939Z,3.93
2018-05-07T07:23:14.987Z,3.07
2018-05-07T07:25:43.237Z,3.40
2018-05-07T07:28:12.322Z,4.13
2018-05-07T07:30:40.549Z,3.90
2018-05-07T07:33:08.787Z,3.33
2018-05-07T07:35:37.887Z,3.30
2018-05-07T07:38:07.169Z,3.93
2018-05-07T07:40:35.415Z,3.83
2018-05-07T07:43:03.672Z,3.70
2018-05-07T07:45:31.922Z,3.90
2018-05-07T07:48:00.161Z,3.45
2018-05-07T07:50:28.407Z,4.00
2018-05-07T07:52:57.424Z,3.70
2018-05-07T07:55:25.689Z,3.43
2018-05-07T07:57:55.399Z,3.77
2018-05-07T08:00:23.659Z,3.42
2018-05-07T08:02:51.924Z,3.42
2018-05-07T08:05:20.162Z,3.30
2018-05-07T08:07:48.408Z,3.00
2018-05-07T08:10:17.476Z,3.37
2018-05-07T08:12:45.698Z,3.30
2018-05-07T08:15:14.737Z,3.40
2018-05-07T08:17:42.960Z,3.20
2018-05-07T08:20:12.349Z,3.30
2018-05-07T08:22:40.607Z,3.53
2018-05-07T08:25:09.461Z,3.62
2018-05-07T08:27:39.197Z,3.65
2018-05-07T08:30:07.478Z,3.00
2018-05-07T08:32:35.711Z,3.33
2018-05-07T08:35:03.984Z,2.83
2018-05-07T08:37:32.229Z,3.28
2018-05-07T08:40:01.660Z,3.37
2018-05-07T08:42:29.878Z,2.92
2018-05-07T08:44:58.925Z,3.33
2018-05-07T08:47:27.153Z,3.42
2018-05-07T08:49:55.415Z,2.85
2018-05-07T08:52:23.635Z,2.95
2018-05-07T08:54:51.895Z,3.20
2018-05-07T08:57:20.901Z,3.85
2018-05-07T08:59:49.934Z,3.20
2018-05-07T09:02:18.343Z,2.85
2018-05-07T09:04:46.435Z,3.35
2018-05-07T09:07:14.925Z,2.95
2018-05-07T09:09:43.185Z,3.00
2018-05-07T09:12:11.435Z,2.83
2018-05-07T09:14:40.412Z,3.08
2018-05-07T09:17:09.432Z,2.97
2018-05-07T09:19:37.741Z,3.15
2018-05-07T09:22:05.974Z,3.17
2018-05-07T09:24:35.500Z,3.12
2018-05-07T09:27:03.745Z,2.65
2018-05-07T09:29:32.076Z,3.45
2018-05-07T09:32:00.306Z,2.95
2018-05-07T09:34:28.568Z,2.62
2018-05-07T09:36:56.819Z,2.95
2018-05-07T09:39:25.205Z,2.80
2018-05-07T09:41:58.466Z,2.45
2018-05-07T09:44:27.484Z,2.80
2018-05-07T09:46:55.724Z,2.60
2018-05-07T09:49:24.064Z,2.70
2018-05-07T09:51:52.323Z,2.40
2018-05-07T09:54:20.585Z,2.10
2018-05-07T09:56:56.611Z,2.33
2018-05-07T09:59:24.691Z,2.12
2018-05-07T10:01:52.952Z,2.10
2018-05-07T10:04:21.171Z,2.35
2018-05-07T10:06:49.443Z,2.45
2018-05-07T10:09:17.680Z,2.03
2018-05-07T10:11:45.947Z,1.90
2018-05-07T10:14:14.656Z,2.35
2018-05-07T10:16:42.923Z,2.30
2018-05-07T10:19:11.251Z,2.20
2018-05-07T10:21:40.418Z,2.08
2018-05-07T10:24:09.408Z,2.00
2018-05-07T10:26:38.400Z,2.20
2018-05-07T10:29:06.651Z,2.33
2018-05-07T10:31:34.983Z,2.53
2018-05-07T10:34:03.224Z,3.28
2018-05-07T10:36:32.268Z,2.50
2018-05-07T10:39:00.553Z,2.42
2018-05-07T10:41:29.063Z,2.12
2018-05-07T10:43:57.916Z,2.58
2018-05-07T10:46:26.166Z,2.62
2018-05-07T10:48:55.162Z,3.00
2018-05-07T10:51:24.205Z,2.70
2018-05-07T10:53:52.431Z,3.20
2018-05-07T10:56:20.673Z,2.90
2018-05-07T10:58:49.053Z,2.53
2018-05-07T11:01:17.884Z,2.40
2018-05-07T11:03:46.169Z,2.47
2018-05-07T11:06:14.392Z,2.62
2018-05-07T11:08:42.632Z,2.80
2018-05-07T11:11:10.899Z,2.47
2018-05-07T11:13:39.237Z,2.70
2018-05-07T11:16:07.376Z,2.40
2018-05-07T11:18:36.412Z,2.60
2018-05-07T11:21:04.644Z,2.75
2018-05-07T11:23:32.890Z,2.83
2018-05-07T11:26:03.387Z,2.83
2018-05-07T11:28:31.609Z,3.08
2018-05-07T11:30:59.865Z,2.78
2018-05-07T11:33:28.267Z,3.00
2018-05-07T11:35:56.555Z,2.90
2018-05-07T11:38:24.817Z,2.90
2018-05-07T11:40:53.064Z,2.78
2018-05-07T11:43:22.810Z,2.70
2018-05-07T11:45:51.053Z,2.92
2018-05-07T11:48:19.291Z,2.80
2018-05-07T11:50:47.551Z,2.87
2018-05-07T11:53:15.876Z,2.25
2018-05-07T11:55:44.858Z,2.40
2018-05-07T11:58:13.109Z,3.10
2018-05-07T12:00:41.390Z,2.70
2018-05-07T12:03:10.280Z,3.30
2018-05-07T12:05:40.753Z,3.28
2018-05-07T12:08:09.078Z,3.28
2018-05-07T12:10:37.287Z,4.75
2018-05-07T12:13:05.524Z,2.42
2018-05-07T12:15:34.597Z,2.60
2018-05-07T12:18:02.880Z,3.90
2018-05-07T12:20:31.132Z,2.58
2018-05-07T12:22:59.403Z,2.35
2018-05-07T12:25:28.396Z,2.37
2018-05-07T12:27:57.445Z,3.17
2018-05-07T12:30:25.738Z,2.55
2018-05-07T12:32:54.001Z,2.78
2018-05-07T12:35:23.089Z,2.20
2018-05-07T12:37:51.330Z,2.53
2018-05-07T12:40:20.338Z,2.83
2018-05-07T12:42:48.633Z,2.30
2018-05-07T12:45:16.884Z,2.60
2018-05-07T12:47:45.906Z,2.45
2018-05-07T12:50:14.140Z,2.72
2018-05-07T12:52:43.025Z,2.30
2018-05-07T12:55:11.245Z,2.37
2018-05-07T12:57:40.260Z,2.33
2018-05-07T13:00:08.501Z,2.90
2018-05-07T13:02:36.738Z,2.80
2018-05-07T13:05:04.976Z,2.67
2018-05-07T13:07:34.000Z,2.37
2018-05-07T13:10:05.360Z,2.87
2018-05-07T13:12:33.666Z,2.70
2018-05-07T13:15:01.915Z,3.20
2018-05-07T13:17:31.273Z,2.42
2018-05-07T13:19:59.571Z,2.40
2018-05-07T13:22:27.888Z,2.45
2018-05-07T13:24:56.264Z,2.40
2018-05-07T13:27:24.395Z,2.40
2018-05-07T13:29:52.637Z,2.10
2018-05-07T13:32:20.883Z,2.00
2018-05-07T13:34:50.632Z,2.67
2018-05-07T13:37:18.904Z,2.42
2018-05-07T13:39:47.140Z,2.53
2018-05-07T13:42:15.413Z,2.62
2018-05-07T13:44:43.652Z,2.60
2018-05-07T13:47:12.553Z,2.58
2018-05-07T13:49:40.793Z,2.47
2018-05-07T13:52:09.897Z,2.10
2018-05-07T13:54:38.245Z,2.17
2018-05-07T13:57:06.497Z,2.45
2018-05-07T13:59:34.775Z,2.20
2018-05-07T14:02:03.151Z,2.47
2018-05-07T14:04:32.176Z,2.60
2018-05-07T14:07:00.444Z,2.60
2018-05-07T14:09:28.689Z,2.00
2018-05-07T14:11:57.789Z,2.28
2018-05-07T14:14:26.847Z,2.30
2018-05-07T14:16:55.824Z,2.20
2018-05-07T14:19:24.109Z,1.92
2018-05-07T14:21:52.383Z,2.37
2018-05-07T14:24:20.636Z,2.10
2018-05-07T14:26:49.760Z,2.05
2018-05-07T14:29:18.859Z,1.73
2018-05-07T14:31:48.187Z,2.40
2018-05-07T14:34:16.484Z,2.28
2018-05-07T14:36:44.752Z,2.35
2018-05-07T14:39:13.010Z,2.20
2018-05-07T14:41:41.872Z,2.05
2018-05-07T14:44:10.150Z,2.83
2018-05-07T14:46:39.001Z,2.60
2018-05-07T14:49:07.224Z,2.03
2018-05-07T14:51:35.501Z,2.30
2018-05-07T14:54:03.781Z,2.45
2018-05-07T14:56:32.010Z,2.30
2018-05-07T14:59:00.276Z,2.17
2018-05-07T15:01:28.534Z,2.00
2018-05-07T15:03:57.540Z,1.83
2018-05-07T15:06:27.313Z,2.00
2018-05-07T15:08:55.821Z,2.20
2018-05-07T15:11:25.011Z,2.00
2018-05-07T15:14:06.845Z,2.22
2018-05-07T15:16:35.079Z,2.15
2018-05-07T15:19:03.377Z,2.30
2018-05-07T15:21:32.493Z,2.10
2018-05-07T15:24:01.508Z,1.67
2018-05-07T15:26:30.521Z,1.90
2018-05-07T15:28:58.782Z,1.90
2018-05-07T15:31:28.423Z,2.03
2018-05-07T15:33:56.687Z,2.12
2018-05-07T15:36:25.107Z,2.80
2018-05-07T15:38:54.019Z,2.20
2018-05-07T15:41:22.247Z,2.03
2018-05-07T15:43:51.281Z,1.87
2018-05-07T15:46:19.527Z,1.92
2018-05-07T15:48:47.794Z,2.03
2018-05-07T15:51:17.296Z,1.83
2018-05-07T15:53:45.580Z,2.20
2018-05-07T15:56:14.107Z,2.33
2018-05-07T15:58:42.420Z,1.90
2018-05-07T16:01:10.667Z,1.60
2018-05-07T16:03:38.875Z,2.30
2018-05-07T16:06:07.249Z,2.30
2018-05-07T16:08:35.412Z,2.20
2018-05-07T16:11:03.673Z,2.10
2018-05-07T16:13:31.899Z,2.30
2018-05-07T16:16:00.167Z,2.40
2018-05-07T16:18:28.440Z,2.70
2018-05-07T16:20:56.700Z,2.50
2018-05-07T16:23:24.932Z,2.12
2018-05-07T16:25:53.176Z,2.50
2018-05-07T16:28:21.499Z,1.87
2018-05-07T16:30:50.456Z,1.90
2018-05-07T16:33:18.730Z,2.08
2018-05-07T16:35:47.012Z,2.20
2018-05-07T16:38:15.968Z,2.37
2018-05-07T16:40:44.249Z,1.85
2018-05-07T16:43:12.532Z,2.40
2018-05-07T16:45:40.779Z,2.00
2018-05-07T16:48:09.024Z,2.15
2018-05-07T16:50:37.280Z,2.20
2018-05-07T16:53:05.547Z,2.17
2018-05-07T16:55:33.806Z,2.35
2018-05-07T16:58:04.017Z,1.80
2018-05-07T17:00:32.273Z,1.67
2018-05-07T17:03:00.527Z,2.00
2018-05-07T17:05:28.796Z,2.05
2018-05-07T17:07:57.061Z,1.75
2018-05-07T17:10:25.332Z,1.75
2018-05-07T17:12:53.589Z,2.40
2018-05-07T17:15:21.854Z,2.12
2018-05-07T17:17:50.873Z,2.00
2018-05-07T17:20:19.137Z,1.77
2018-05-07T17:22:48.145Z,2.20
2018-05-07T17:25:16.410Z,2.40
2018-05-07T17:27:45.421Z,1.92
2018-05-07T17:30:13.682Z,2.17
2018-05-07T17:32:42.695Z,1.93
2018-05-07T17:35:11.716Z,1.90
2018-05-07T17:37:39.994Z,2.15
2018-05-07T17:40:08.255Z,2.20
2018-05-07T17:42:37.265Z,2.00
2018-05-07T17:45:17.605Z,2.05
2018-05-07T17:47:58.848Z,2.10
2018-05-07T17:50:27.103Z,2.37
2018-05-07T17:52:55.373Z,2.10
2018-05-07T17:55:24.456Z,2.20
2018-05-07T17:57:53.455Z,2.17
2018-05-07T18:00:21.717Z,2.30
2018-05-07T18:02:50.739Z,2.20
2018-05-07T18:05:18.988Z,1.90
2018-05-07T18:07:47.988Z,2.13
2018-05-07T18:10:17.109Z,2.10
2018-05-07T18:12:45.386Z,2.30
2018-05-07T18:15:14.396Z,1.90
2018-05-07T18:17:43.507Z,1.60
2018-05-07T18:20:11.899Z,2.17
2018-05-07T18:22:40.132Z,2.13
2018-05-07T18:25:09.204Z,2.00
2018-05-07T18:27:37.447Z,2.20
2018-05-07T18:30:05.676Z,2.40
2018-05-07T18:32:33.944Z,2.27
2018-05-07T18:35:02.853Z,2.40
2018-05-07T18:37:31.580Z,2.45
2018-05-07T18:40:00.583Z,2.10
2018-05-07T18:42:29.703Z,2.00
2018-05-07T18:44:57.952Z,2.20
2018-05-07T18:47:26.976Z,2.00
2018-05-07T18:49:55.207Z,1.80
2018-05-07T18:52:24.228Z,2.17
2018-05-07T18:54:53.225Z,2.40
2018-05-07T18:57:22.240Z,2.03
2018-05-07T18:59:50.455Z,2.27
2018-05-07T19:02:19.570Z,2.10
2018-05-07T19:04:47.835Z,2.00
2018-05-07T19:07:16.089Z,2.43
2018-05-07T19:09:45.169Z,2.00
2018-05-07T19:12:13.357Z,2.00
2018-05-07T19:14:42.348Z,2.10
2018-05-07T19:17:11.379Z,2.10
2018-05-07T19:19:39.675Z,2.40
2018-05-07T19:22:08.656Z,2.00
2018-05-07T19:24:36.911Z,2.50
2018-05-07T19:27:05.918Z,2.40
2018-05-07T19:29:34.179Z,2.47
2018-05-07T19:32:03.207Z,2.50
2018-05-07T19:34:31.447Z,2.03
2018-05-07T19:36:59.697Z,2.33
2018-05-07T19:39:27.948Z,2.70
2018-05-07T19:41:56.208Z,2.20
2018-05-07T19:44:25.323Z,2.40
2018-05-07T19:46:53.582Z,2.37
2018-05-07T19:49:21.819Z,2.30
2018-05-07T19:51:50.517Z,2.27
2018-05-07T19:54:18.763Z,2.17
2018-05-07T19:56:47.006Z,2.50
2018-05-07T19:59:15.236Z,2.30
2018-05-07T20:01:43.473Z,2.13
2018-05-07T20:04:12.520Z,2.33
2018-05-07T20:06:40.756Z,2.53
2018-05-07T20:09:09.008Z,2.73
2018-05-07T20:11:38.108Z,2.20
2018-05-07T20:14:06.387Z,2.17
2018-05-07T20:16:34.617Z,2.13
2018-05-07T20:19:03.638Z,2.33
2018-05-07T20:21:31.871Z,2.40
2018-05-07T20:24:00.139Z,2.40
2018-05-07T20:26:28.383Z,2.30
2018-05-07T20:28:56.620Z,2.43
2018-05-07T20:31:25.700Z,2.40
2018-05-07T20:33:53.943Z,2.43
2018-05-07T20:36:22.232Z,2.23
2018-05-07T20:38:50.513Z,2.47
2018-05-07T20:41:18.769Z,2.53
2018-05-07T20:43:47.771Z,2.37
2018-05-07T20:46:15.999Z,2.57
2018-05-07T20:48:44.244Z,2.03
2018-05-07T20:51:12.525Z,2.40
2018-05-07T20:53:40.781Z,2.63
2018-05-07T20:56:09.834Z,2.43
2018-05-07T20:58:38.068Z,2.53
2018-05-07T21:01:06.317Z,2.30
2018-05-07T21:03:34.565Z,2.33
2018-05-07T21:06:02.812Z,2.50
2018-05-07T21:08:31.061Z,2.53
2018-05-07T21:10:59.293Z,2.30
2018-05-07T21:13:27.548Z,2.20
2018-05-07T21:15:55.793Z,2.53
2018-05-07T21:18:24.046Z,2.30
2018-05-07T21:20:52.295Z,2.27
2018-05-07T21:23:21.291Z,2.63
2018-05-07T21:25:49.539Z,2.70
2018-05-07T21:28:18.488Z,2.63
2018-05-07T21:30:46.725Z,2.33
2018-05-07T21:33:15.759Z,2.40
2018-05-07T21:35:44.059Z,2.50
2018-05-07T21:38:12.261Z,2.60
2018-05-07T21:40:40.492Z,2.33
2018-05-07T21:43:08.744Z,2.63
2018-05-07T21:45:36.981Z,2.40
2018-05-07T21:48:05.231Z,2.40
2018-05-07T21:50:34.272Z,2.80
2018-05-07T21:53:02.487Z,2.27
2018-05-07T21:55:32.416Z,2.43
2018-05-07T21:58:01.427Z,2.57
2018-05-07T22:00:30.137Z,2.67
2018-05-07T22:02:58.372Z,2.50
2018-05-07T22:05:26.636Z,2.67
2018-05-07T22:07:54.909Z,2.87
2018-05-07T22:10:23.173Z,2.77
2018-05-07T22:12:51.551Z,2.40
2018-05-07T22:15:19.810Z,2.67
2018-05-07T22:17:48.144Z,2.90
2018-05-07T22:20:16.400Z,2.50
2018-05-07T22:22:44.648Z,2.70
2018-05-07T22:25:13.652Z,2.50
2018-05-07T22:27:42.192Z,2.50
2018-05-07T22:30:10.436Z,2.60
2018-05-07T22:32:39.283Z,2.60
2018-05-07T22:35:07.508Z,3.17
2018-05-07T22:37:35.764Z,2.93
2018-05-07T22:40:04.783Z,2.70
2018-05-07T22:42:33.015Z,3.00
2018-05-07T22:45:01.253Z,3.10
2018-05-07T22:47:29.936Z,2.90
2018-05-07T22:49:58.197Z,3.27
2018-05-07T22:52:27.187Z,3.00
2018-05-07T22:55:19.896Z,3.20
2018-05-07T22:57:48.151Z,3.17
2018-05-07T23:00:16.413Z,3.07
2018-05-07T23:02:46.613Z,3.20
2018-05-07T23:05:14.911Z,3.03
2018-05-07T23:07:43.237Z,2.90
2018-05-07T23:10:11.495Z,3.07
2018-05-07T23:12:39.744Z,3.50
2018-05-07T23:15:07.974Z,3.23
2018-05-07T23:17:36.228Z,3.33
2018-05-07T23:20:04.494Z,3.00
2018-05-07T23:22:33.600Z,3.10
2018-05-07T23:25:01.849Z,3.23
2018-05-07T23:27:30.111Z,3.10
2018-05-07T23:29:58.363Z,3.30
2018-05-07T23:32:26.724Z,3.40
2018-05-07T23:34:54.987Z,3.23
2018-05-07T23:37:23.993Z,2.90
2018-05-07T23:39:52.977Z,3.40
2018-05-07T23:42:21.237Z,3.20
2018-05-07T23:44:50.111Z,3.30
2018-05-07T23:47:18.372Z,3.47
2018-05-07T23:49:46.593Z,3.03
2018-05-07T23:52:14.865Z,2.90
2018-05-07T23:54:43.176Z,2.97
2018-05-07T23:57:11.463Z,3.40
2018-05-07T23:59:40.457Z,2.90
